Terminal Aerodrome Forecast
Issued by NWS

Home | Current Version | Previous Version | Text Only | Print | Product List | Glossary Off
Versions: 1 2 3 4 5 6 7 8 9 10 11 12 13 14 15 16 17 18 19 20 21 22 23 24 25 26 27 28 29 30 31 32 33 34

000
FTUS43 KLOT 172206 AAC
TAFORD
TAF AMD
KORD 172206Z 1722/1824 23009KT P6SM FEW070 BKN090
     FM180000 12008KT P6SM FEW070 BKN090
     FM180300 21004KT P6SM SCT060
     FM181000 02006KT P6SM BKN060
     FM181400 05012G17KT P6SM BKN060=

USA.gov is the U.S. government's official web portal to all federal, state and local government web resources and services.